Time;durP1;ratioP1;P1;durP2;ratioP2;P2;SDS_P1;SDS_P2;PMS_P1;PMS_P2;Temp;Humidity;BMP_temperature;BMP_pressure;BME280_temperature;BME280_humidity;BME280_pressure;Samples;Min_cycle;Max_cycle;Signal;HPM_P1;HPM_P2
2022/10/26 03:02:11;;;;;;;2.10;0.70;;;15.30;81.70;;;;;;5461320;22;20546;-74
2022/10/26 03:04:38;;;;;;;0.70;0.70;;;15.20;82.00;;;;;;5073500;28;20932;-74
2022/10/26 03:07:05;;;;;;;0.73;0.70;;;15.10;82.50;;;;;;5073846;28;20457;-74
2022/10/26 03:09:31;;;;;;;0.77;0.77;;;15.00;82.90;;;;;;5073365;28;20472;-75
2022/10/26 03:11:58;;;;;;;0.70;0.70;;;15.00;82.90;;;;;;5073636;28;20466;-74
2022/10/26 03:14:25;;;;;;;0.60;0.60;;;15.00;83.00;;;;;;5075398;28;20442;-74
2022/10/26 03:16:51;;;;;;;0.90;0.60;;;15.00;83.00;;;;;;5073890;28;20450;-74
2022/10/26 03:19:20;;;;;;;0.70;0.63;;;15.00;83.30;;;;;;5075241;28;20481;-74
2022/10/26 03:21:46;;;;;;;0.70;0.70;;;15.10;83.50;;;;;;5077954;28;20832;-74
2022/10/26 03:24:13;;;;;;;0.60;0.60;;;15.10;82.80;;;;;;5077719;28;21026;-74
2022/10/26 03:26:40;;;;;;;0.70;0.70;;;15.10;83.10;;;;;;5077947;28;20452;-74
2022/10/26 03:29:07;;;;;;;0.60;0.60;;;15.10;82.90;;;;;;5077723;28;20452;-74
2022/10/26 03:31:34;;;;;;;0.60;0.60;;;15.10;83.10;;;;;;5077835;28;20469;-74
2022/10/26 03:34:01;;;;;;;0.80;0.70;;;15.20;83.10;;;;;;5077825;28;20453;-74
2022/10/26 03:36:29;;;;;;;0.60;0.60;;;15.30;82.90;;;;;;5077867;28;20445;-74
2022/10/26 03:38:55;;;;;;;0.63;0.63;;;15.10;82.70;;;;;;5077935;28;20437;-74
2022/10/26 03:41:22;;;;;;;0.80;0.60;;;15.00;83.30;;;;;;5078155;28;20461;-75
2022/10/26 03:43:49;;;;;;;0.70;0.70;;;14.90;84.40;;;;;;5077742;28;20446;-72
2022/10/26 03:46:16;;;;;;;0.77;0.70;;;14.90;84.50;;;;;;5077507;28;20442;-74
2022/10/26 03:48:42;;;;;;;0.90;0.70;;;14.80;84.50;;;;;;5077650;28;20472;-74
2022/10/26 03:51:09;;;;;;;0.67;0.67;;;14.70;84.90;;;;;;5077560;28;20508;-74
2022/10/26 03:53:37;;;;;;;0.60;0.60;;;14.60;85.40;;;;;;5077864;28;20438;-75
2022/10/26 03:56:04;;;;;;;0.70;0.60;;;14.60;85.50;;;;;;5077624;28;20974;-74
2022/10/26 03:58:31;;;;;;;1.20;0.80;;;14.70;85.70;;;;;;5077395;28;20438;-74
2022/10/26 04:00:57;;;;;;;0.63;0.63;;;14.70;85.50;;;;;;5077066;28;20512;-74
2022/10/26 04:03:24;;;;;;;0.60;0.60;;;14.70;85.40;;;;;;5077646;28;20479;-74
2022/10/26 04:05:51;;;;;;;0.70;0.70;;;14.70;85.30;;;;;;5077309;28;20445;-74
2022/10/26 04:08:17;;;;;;;0.90;0.77;;;14.80;85.90;;;;;;5077380;28;20826;-75
2022/10/26 04:10:46;;;;;;;0.60;0.60;;;14.90;85.30;;;;;;5077157;28;20465;-75
2022/10/26 04:13:13;;;;;;;0.70;0.70;;;14.90;85.10;;;;;;5077348;28;20504;-74
2022/10/26 04:15:39;;;;;;;0.70;0.60;;;14.90;85.00;;;;;;5077154;28;20960;-74
2022/10/26 04:18:06;;;;;;;0.70;0.70;;;15.10;84.90;;;;;;5077141;28;20449;-74
2022/10/26 04:20:35;;;;;;;0.70;0.70;;;15.20;83.70;;;;;;5077065;28;20485;-75
2022/10/26 04:23:04;;;;;;;0.70;0.70;;;15.30;83.80;;;;;;5077287;28;20450;-75
2022/10/26 04:25:31;;;;;;;0.60;0.60;;;15.30;84.30;;;;;;5077332;28;20446;-74
2022/10/26 04:28:00;;;;;;;0.80;0.70;;;15.30;84.70;;;;;;5077146;28;20457;-75
2022/10/26 04:30:27;;;;;;;0.70;0.70;;;15.30;84.80;;;;;;5076495;28;20523;-75
2022/10/26 04:32:53;;;;;;;0.60;0.60;;;15.30;85.00;;;;;;5076889;28;20499;-73
2022/10/26 04:35:20;;;;;;;0.70;0.60;;;15.10;86.00;;;;;;5076772;28;20948;-74
2022/10/26 04:37:47;;;;;;;0.70;0.70;;;15.00;86.70;;;;;;5077112;28;20959;-74
2022/10/26 04:40:14;;;;;;;0.90;0.80;;;15.00;87.20;;;;;;5076764;28;20489;-74
2022/10/26 04:42:41;;;;;;;0.60;0.60;;;15.00;87.30;;;;;;5076705;28;20466;-74
2022/10/26 04:45:10;;;;;;;0.70;0.70;;;15.10;87.10;;;;;;5076669;28;20817;-74
2022/10/26 04:47:37;;;;;;;0.73;0.70;;;15.10;87.00;;;;;;5076522;28;20445;-74
2022/10/26 04:50:05;;;;;;;0.60;0.60;;;15.00;87.40;;;;;;5076577;28;20442;-74
2022/10/26 04:52:32;;;;;;;0.70;0.60;;;15.00;87.60;;;;;;5075845;28;20836;-74
2022/10/26 04:54:58;;;;;;;0.70;0.70;;;15.00;87.40;;;;;;5076653;28;20461;-74
2022/10/26 04:57:25;;;;;;;0.67;0.67;;;15.00;87.60;;;;;;5076410;28;20450;-74
2022/10/26 04:59:52;;;;;;;1.07;0.70;;;15.10;87.40;;;;;;5076218;28;20495;-73
2022/10/26 05:02:20;;;;;;;0.67;0.67;;;15.20;87.10;;;;;;5076012;28;20535;-74
2022/10/26 05:04:48;;;;;;;0.93;0.80;;;15.40;86.40;;;;;;5076554;28;20871;-74
2022/10/26 05:07:14;;;;;;;0.60;0.60;;;15.40;85.80;;;;;;5076405;28;20446;-74
2022/10/26 05:09:41;;;;;;;0.70;0.70;;;15.50;85.90;;;;;;5076616;28;20519;-74
2022/10/26 05:12:08;;;;;;;1.27;0.80;;;15.50;85.40;;;;;;5076221;28;20465;-74
2022/10/26 05:14:34;;;;;;;0.70;0.70;;;15.50;85.30;;;;;;5076290;28;20456;-74
2022/10/26 05:17:01;;;;;;;0.60;0.60;;;15.50;85.40;;;;;;5076402;28;20457;-74
2022/10/26 05:19:29;;;;;;;0.67;0.63;;;15.30;85.80;;;;;;5076459;28;20446;-74
2022/10/26 05:21:56;;;;;;;0.63;0.63;;;15.30;85.70;;;;;;5076071;28;20519;-74
2022/10/26 05:24:23;;;;;;;0.70;0.70;;;15.30;85.90;;;;;;5076612;28;20445;-74
2022/10/26 05:26:49;;;;;;;0.70;0.63;;;15.30;86.40;;;;;;5076096;28;20462;-73
2022/10/26 05:29:16;;;;;;;0.70;0.70;;;15.50;86.00;;;;;;5075833;28;20450;-74
2022/10/26 05:31:43;;;;;;;0.70;0.70;;;15.50;84.90;;;;;;5075855;28;20461;-74
2022/10/26 05:34:09;;;;;;;0.60;0.60;;;15.30;85.60;;;;;;5075979;28;20453;-74
2022/10/26 05:36:37;;;;;;;0.70;0.70;;;15.10;86.20;;;;;;5076005;28;20441;-74
2022/10/26 05:39:04;;;;;;;1.10;0.90;;;15.10;86.10;;;;;;5075983;28;20666;-74
2022/10/26 05:41:31;;;;;;;0.80;0.70;;;15.10;86.10;;;;;;5074337;28;20481;-75
2022/10/26 05:43:57;;;;;;;0.97;0.87;;;15.10;86.40;;;;;;5075746;28;20515;-74
2022/10/26 05:46:24;;;;;;;0.60;0.53;;;15.30;86.00;;;;;;5075174;28;20987;-75
2022/10/26 05:48:51;;;;;;;0.70;0.70;;;15.30;84.90;;;;;;5075729;28;20452;-74
2022/10/26 05:51:17;;;;;;;0.60;0.60;;;15.20;85.50;;;;;;5075849;28;20466;-74
2022/10/26 05:53:45;;;;;;;0.70;0.70;;;15.40;85.20;;;;;;5075726;28;20434;-75
2022/10/26 05:56:19;;;;;;;0.70;0.60;;;15.30;84.80;;;;;;5075508;28;20442;-74
2022/10/26 05:58:46;;;;;;;1.23;0.60;;;15.20;85.50;;;;;;5075378;28;20962;-74
2022/10/26 06:01:25;;;;;;;0.80;0.70;;;15.40;85.30;;;;;;5074878;28;20500;-75
2022/10/26 06:04:05;;;;;;;0.60;0.60;;;15.50;85.10;;;;;;5075137;28;20430;-74
2022/10/26 06:06:39;;;;;;;0.60;0.57;;;15.60;84.70;;;;;;5075229;28;20529;-74
2022/10/26 06:09:10;;;;;;;0.77;0.70;;;15.60;84.20;;;;;;5074917;28;20927;-74
2022/10/26 06:11:37;;;;;;;0.80;0.70;;;15.60;84.30;;;;;;5075279;28;20466;-74
2022/10/26 06:14:06;;;;;;;0.90;0.77;;;15.60;84.70;;;;;;5075586;28;20456;-74
2022/10/26 06:16:39;;;;;;;0.70;0.60;;;15.40;84.90;;;;;;5076513;28;20454;-76
2022/10/26 06:19:15;;;;;;;0.70;0.70;;;15.40;84.90;;;;;;5080287;28;20438;-75
2022/10/26 06:22:02;;;;;;;0.80;0.70;;;15.20;85.40;;;;;;5088534;28;20517;-74
2022/10/26 06:24:38;;;;;;;0.60;0.60;;;15.20;86.10;;;;;;5088771;28;20443;-74
2022/10/26 06:27:17;;;;;;;1.00;1.00;;;15.20;86.40;;;;;;5089124;28;20410;-74
2022/10/26 06:29:52;;;;;;;0.70;0.70;;;15.30;86.00;;;;;;5077792;28;20429;-74
2022/10/26 06:32:18;;;;;;;0.70;0.60;;;15.40;86.20;;;;;;5074382;28;20469;-75
2022/10/26 06:34:48;;;;;;;0.80;0.70;;;15.40;85.80;;;;;;5074827;28;20457;-74
2022/10/26 06:37:15;;;;;;;1.03;0.83;;;15.40;85.90;;;;;;5074805;28;20446;-75
2022/10/26 06:39:46;;;;;;;0.60;0.60;;;15.50;86.20;;;;;;5074221;28;20814;-75
2022/10/26 06:42:13;;;;;;;1.10;0.70;;;15.50;85.80;;;;;;5074240;28;20580;-74
2022/10/26 06:44:40;;;;;;;0.80;0.73;;;15.50;86.20;;;;;;5074207;28;20445;-75
2022/10/26 06:47:14;;;;;;;0.60;0.60;;;15.50;86.00;;;;;;5074151;28;20441;-74
2022/10/26 06:49:52;;;;;;;0.70;0.70;;;15.50;86.10;;;;;;5074176;28;20437;-74
2022/10/26 06:52:27;;;;;;;0.70;0.70;;;15.50;86.00;;;;;;5074395;28;20538;-72
2022/10/26 06:54:56;;;;;;;0.67;0.67;;;15.70;85.60;;;;;;5078138;28;20432;-72
2022/10/26 06:57:24;;;;;;;0.70;0.70;;;15.60;85.60;;;;;;5076250;28;20446;-73
2022/10/26 06:59:53;;;;;;;0.60;0.60;;;15.70;85.50;;;;;;5075544;28;20847;-73
2022/10/26 07:02:20;;;;;;;1.47;0.90;;;15.80;85.00;;;;;;5074421;28;20465;-72
2022/10/26 07:04:47;;;;;;;0.60;0.60;;;15.70;85.20;;;;;;5075289;28;20458;-72
2022/10/26 07:07:17;;;;;;;0.70;0.70;;;15.70;85.20;;;;;;5075207;28;20445;-73
2022/10/26 07:09:44;;;;;;;0.80;0.70;;;15.70;85.60;;;;;;5076925;28;20442;-73
2022/10/26 07:12:12;;;;;;;1.20;0.70;;;15.70;85.50;;;;;;5078315;28;20454;-73
2022/10/26 07:14:39;;;;;;;0.70;0.70;;;15.70;85.50;;;;;;5076889;28;20444;-73
2022/10/26 07:17:06;;;;;;;0.63;0.63;;;15.60;85.80;;;;;;5078288;28;20552;-74
2022/10/26 07:19:32;;;;;;;0.97;0.60;;;15.60;85.80;;;;;;5076921;28;20441;-72
2022/10/26 07:22:00;;;;;;;0.73;0.73;;;15.60;85.90;;;;;;5075415;28;21009;-74
2022/10/26 07:24:27;;;;;;;0.97;0.60;;;15.70;87.30;;;;;;5077052;28;20544;-73
2022/10/26 07:26:54;;;;;;;1.00;0.70;;;15.80;86.00;;;;;;5077566;28;20449;-73
2022/10/26 07:29:22;;;;;;;0.67;0.67;;;15.90;85.30;;;;;;5076653;28;20453;-72
2022/10/26 07:31:49;;;;;;;0.90;0.90;;;15.80;84.80;;;;;;5078714;28;20473;-73
2022/10/26 07:34:16;;;;;;;0.80;0.80;;;15.70;85.30;;;;;;5076742;28;20769;-72
2022/10/26 07:36:43;;;;;;;1.20;0.70;;;15.70;85.70;;;;;;5076294;28;20446;-72
2022/10/26 07:39:10;;;;;;;0.80;0.80;;;15.90;85.90;;;;;;5077074;28;20454;-73
2022/10/26 07:41:36;;;;;;;0.60;0.60;;;15.80;84.80;;;;;;5076753;28;21026;-73
2022/10/26 07:44:03;;;;;;;0.70;0.70;;;15.70;85.60;;;;;;5076528;28;20457;-72
2022/10/26 07:46:31;;;;;;;0.60;0.60;;;15.60;85.90;;;;;;5076166;28;20460;-72
2022/10/26 07:48:58;;;;;;;0.70;0.70;;;15.70;85.80;;;;;;5075964;28;20445;-71
2022/10/26 07:51:24;;;;;;;0.70;0.60;;;15.60;86.00;;;;;;5076740;28;20466;-72
2022/10/26 07:53:51;;;;;;;0.70;0.70;;;15.50;86.20;;;;;;5077061;28;20946;-71
2022/10/26 07:56:18;;;;;;;0.70;0.70;;;15.60;86.60;;;;;;5074704;28;20457;-73
2022/10/26 07:58:45;;;;;;;1.57;0.70;;;15.70;86.30;;;;;;5074339;28;20453;-72
2022/10/26 08:01:14;;;;;;;0.60;0.60;;;15.80;86.00;;;;;;5073669;28;20489;-72
2022/10/26 08:03:42;;;;;;;0.70;0.70;;;15.80;85.60;;;;;;5074136;28;20453;-73
2022/10/26 08:06:09;;;;;;;0.90;0.90;;;15.80;85.70;;;;;;5075104;28;20813;-73
2022/10/26 08:08:36;;;;;;;0.80;0.80;;;15.80;85.90;;;;;;5077149;28;20484;-73
2022/10/26 08:11:04;;;;;;;0.70;0.70;;;16.00;86.80;;;;;;5077876;28;20507;-72
2022/10/26 08:13:34;;;;;;;1.00;0.90;;;16.20;85.20;;;;;;5077481;28;20486;-73
2022/10/26 08:16:03;;;;;;;0.60;0.60;;;16.40;84.60;;;;;;5078173;28;20495;-72
2022/10/26 08:18:30;;;;;;;0.67;0.67;;;16.60;83.80;;;;;;5077651;28;20805;-73
2022/10/26 08:21:02;;;;;;;0.80;0.80;;;16.60;83.50;;;;;;5078612;28;20489;-70
2022/10/26 08:23:28;;;;;;;0.70;0.70;;;16.50;83.80;;;;;;5076896;28;20434;-73
2022/10/26 08:25:58;;;;;;;0.70;0.70;;;16.60;83.50;;;;;;5076434;28;20446;-73
2022/10/26 08:28:25;;;;;;;0.60;0.60;;;16.70;83.80;;;;;;5076345;28;20849;-73
2022/10/26 08:30:51;;;;;;;0.70;0.67;;;16.70;83.10;;;;;;5075934;28;20469;-73
2022/10/26 08:33:18;;;;;;;0.70;0.70;;;16.70;83.60;;;;;;5075938;28;20445;-73
2022/10/26 08:35:45;;;;;;;0.80;0.80;;;16.90;83.40;;;;;;5075885;28;20446;-73
2022/10/26 08:38:13;;;;;;;0.70;0.70;;;16.90;83.80;;;;;;5076449;28;20816;-73
2022/10/26 08:40:42;;;;;;;0.63;0.63;;;16.80;82.90;;;;;;5078623;28;20449;-73
2022/10/26 08:43:16;;;;;;;0.63;0.63;;;16.80;83.70;;;;;;5077212;28;20451;-72
2022/10/26 08:45:48;;;;;;;0.77;0.77;;;16.90;83.20;;;;;;5077012;28;20422;-72
2022/10/26 08:48:18;;;;;;;0.70;0.70;;;16.80;83.10;;;;;;5076589;28;20434;-73
2022/10/26 08:50:49;;;;;;;1.00;0.70;;;16.90;83.10;;;;;;5077066;28;20523;-73
2022/10/26 08:53:22;;;;;;;0.80;0.70;;;16.90;83.60;;;;;;5076471;28;20437;-72
2022/10/26 08:55:53;;;;;;;0.60;0.60;;;17.00;82.10;;;;;;5075678;28;20521;-71
2022/10/26 08:58:25;;;;;;;0.60;0.60;;;16.80;83.40;;;;;;5075691;28;20429;-73
2022/10/26 09:00:53;;;;;;;0.70;0.70;;;16.80;83.40;;;;;;5075146;28;20512;-73
2022/10/26 09:03:20;;;;;;;0.70;0.70;;;16.80;83.20;;;;;;5075436;28;20430;-73
2022/10/26 09:05:57;;;;;;;0.70;0.70;;;16.80;83.20;;;;;;5075855;28;20449;-73
2022/10/26 09:08:34;;;;;;;0.87;0.70;;;16.90;83.40;;;;;;5074925;28;20441;-73
2022/10/26 09:11:11;;;;;;;0.70;0.70;;;16.90;83.10;;;;;;5076310;28;20943;-74
2022/10/26 09:13:48;;;;;;;0.60;0.60;;;17.00;83.40;;;;;;5075654;28;20429;-74
2022/10/26 09:16:28;;;;;;;0.60;0.60;;;17.10;83.10;;;;;;5078409;28;20445;-77
2022/10/26 09:19:20;;;;;;;0.70;0.70;;;17.10;82.40;;;;;;5079003;28;20548;-74
2022/10/26 09:21:53;;;;;;;0.90;0.90;;;17.20;83.00;;;;;;5075633;28;20490;-74
2022/10/26 09:24:28;;;;;;;0.70;0.70;;;17.30;82.70;;;;;;5075207;28;20441;-75
2022/10/26 09:26:58;;;;;;;0.60;0.60;;;17.40;83.40;;;;;;5074570;28;20804;-75
2022/10/26 09:29:28;;;;;;;0.67;0.67;;;17.40;82.80;;;;;;5074868;28;20457;-74
2022/10/26 09:31:57;;;;;;;0.70;0.60;;;17.40;82.40;;;;;;5074642;28;20465;-74
2022/10/26 09:34:30;;;;;;;0.70;0.70;;;17.50;81.90;;;;;;5075097;28;20519;-74
2022/10/26 09:36:57;;;;;;;0.90;0.70;;;17.70;82.30;;;;;;5075104;28;20442;-70
2022/10/26 09:39:36;;;;;;;0.97;0.90;;;17.80;81.60;;;;;;5074550;28;20441;-74
2022/10/26 09:42:13;;;;;;;0.70;0.70;;;17.90;81.10;;;;;;5076023;28;20486;-73
2022/10/26 09:44:44;;;;;;;0.60;0.60;;;17.80;81.30;;;;;;5077003;28;20421;-74
2022/10/26 09:47:20;;;;;;;0.67;0.67;;;18.00;81.40;;;;;;5076138;28;20445;-74
2022/10/26 09:49:50;;;;;;;0.70;0.70;;;18.20;81.10;;;;;;5076942;28;20426;-72
2022/10/26 09:52:17;;;;;;;0.70;0.60;;;18.30;78.70;;;;;;5075752;28;20469;-74
2022/10/26 09:54:45;;;;;;;0.60;0.60;;;18.40;78.80;;;;;;5075393;28;20800;-74
2022/10/26 09:57:15;;;;;;;0.80;0.73;;;18.50;77.90;;;;;;5075489;28;20457;-74
2022/10/26 09:59:42;;;;;;;0.80;0.80;;;18.70;78.60;;;;;;5074403;28;20781;-71
2022/10/26 10:02:34;;;;;;;0.70;0.70;;;18.80;77.30;;;;;;5074199;28;20984;-74
2022/10/26 10:05:01;;;;;;;0.63;0.63;;;18.90;77.20;;;;;;5072139;28;20454;-73
2022/10/26 10:07:28;;;;;;;0.77;0.77;;;19.20;76.90;;;;;;5074923;28;20441;-74
2022/10/26 10:10:14;;;;;;;0.70;0.70;;;19.30;74.80;;;;;;5073814;28;21002;-74
2022/10/26 10:12:41;;;;;;;0.80;0.80;;;19.40;76.80;;;;;;5073773;28;21022;-74
2022/10/26 10:15:18;;;;;;;0.73;0.73;;;19.30;74.90;;;;;;5074117;28;20444;-74
2022/10/26 10:17:48;;;;;;;0.70;0.70;;;19.20;75.80;;;;;;5073707;28;20430;-74
2022/10/26 10:20:20;;;;;;;1.00;0.70;;;19.20;76.20;;;;;;5074014;28;20434;-74
2022/10/26 10:22:54;;;;;;;0.50;0.50;;;19.10;76.50;;;;;;5073601;28;20490;-74
2022/10/26 10:25:34;;;;;;;1.43;0.70;;;19.20;75.90;;;;;;5074720;28;20437;-74
2022/10/26 10:28:01;;;;;;;0.70;0.60;;;19.20;75.70;;;;;;5077220;28;20453;-73
2022/10/26 10:30:31;;;;;;;0.70;0.70;;;19.30;76.30;;;;;;5076424;28;20434;-76
2022/10/26 10:33:05;;;;;;;0.73;0.70;;;19.40;74.90;;;;;;5076073;28;20449;-73
2022/10/26 10:35:32;;;;;;;0.70;0.60;;;19.60;74.10;;;;;;5075590;28;20911;-74
2022/10/26 10:37:59;;;;;;;0.80;0.80;;;19.80;74.10;;;;;;5075837;28;20445;-74
2022/10/26 10:40:30;;;;;;;0.70;0.70;;;20.00;74.20;;;;;;5076094;28;20430;-75
2022/10/26 10:43:06;;;;;;;0.70;0.70;;;20.10;73.10;;;;;;5075770;28;20469;-72
2022/10/26 10:45:34;;;;;;;0.80;0.70;;;20.10;72.90;;;;;;5073583;28;20430;-74
2022/10/26 10:48:04;;;;;;;0.77;0.77;;;20.20;72.70;;;;;;5074135;28;20524;-74
2022/10/26 10:50:32;;;;;;;0.97;0.70;;;20.30;73.10;;;;;;5074233;28;20456;-73
2022/10/26 10:53:14;;;;;;;0.80;0.80;;;20.30;72.20;;;;;;5074919;28;20438;-73
2022/10/26 10:55:49;;;;;;;0.70;0.63;;;20.50;72.90;;;;;;5074889;28;20908;-74
2022/10/26 10:58:23;;;;;;;1.00;0.77;;;20.60;72.30;;;;;;5074599;28;20441;-74
2022/10/26 11:00:50;;;;;;;0.70;0.70;;;20.70;72.50;;;;;;5073659;28;20465;-73
2022/10/26 11:03:50;;;;;;;0.70;0.60;;;20.70;72.50;;;;;;5074323;28;20465;-74
2022/10/26 11:06:20;;;;;;;0.70;0.70;;;20.60;72.00;;;;;;5076905;28;20445;-74
2022/10/26 11:08:50;;;;;;;0.70;0.60;;;20.60;72.50;;;;;;5077021;28;20445;-74
2022/10/26 11:11:22;;;;;;;0.70;0.67;;;20.60;72.00;;;;;;5076005;28;20456;-75
2022/10/26 11:13:53;;;;;;;0.67;0.67;;;20.60;72.10;;;;;;5077933;28;20426;-75
2022/10/26 11:16:24;;;;;;;0.70;0.70;;;20.60;72.80;;;;;;5078075;28;20497;-75
2022/10/26 11:18:57;;;;;;;1.13;0.70;;;20.50;73.20;;;;;;5074261;28;20410;-73
2022/10/26 11:21:28;;;;;;;1.03;0.70;;;20.40;73.80;;;;;;5073097;28;20907;-74
2022/10/26 11:24:09;;;;;;;0.80;0.80;;;20.50;72.70;;;;;;5073107;28;20434;-72
2022/10/26 11:26:42;;;;;;;0.90;0.80;;;20.70;73.50;;;;;;5073295;28;20438;-75
2022/10/26 11:29:22;;;;;;;0.80;0.70;;;20.80;71.70;;;;;;5073248;28;20889;-74
2022/10/26 11:31:54;;;;;;;0.67;0.67;;;21.00;72.00;;;;;;5073053;28;20465;-73
2022/10/26 11:34:27;;;;;;;0.63;0.63;;;20.90;71.20;;;;;;5075356;28;20483;-75
2022/10/26 11:36:59;;;;;;;0.70;0.70;;;21.00;71.50;;;;;;5073535;28;20441;-73
2022/10/26 11:39:34;;;;;;;0.80;0.70;;;21.10;69.90;;;;;;5074438;28;20441;-74
2022/10/26 11:42:09;;;;;;;0.70;0.70;;;21.20;70.90;;;;;;5077045;28;20488;-75
2022/10/26 11:44:40;;;;;;;1.03;0.80;;;21.50;70.00;;;;;;5076928;28;20425;-74
2022/10/26 11:47:14;;;;;;;1.47;0.77;;;22.00;68.50;;;;;;5079196;28;20909;-74
2022/10/26 11:49:45;;;;;;;0.97;0.70;;;22.00;67.60;;;;;;5078920;28;20889;-74
2022/10/26 11:52:16;;;;;;;0.80;0.70;;;22.30;67.70;;;;;;5078251;28;20466;-73
2022/10/26 11:54:48;;;;;;;0.70;0.70;;;22.60;66.70;;;;;;5078857;28;20808;-74
2022/10/26 11:57:16;;;;;;;0.60;0.60;;;22.60;66.00;;;;;;5080036;28;20853;-74
2022/10/26 11:59:47;;;;;;;0.70;0.70;;;22.70;65.60;;;;;;5079066;28;20450;-74
2022/10/26 12:02:16;;;;;;;0.80;0.70;;;22.70;64.60;;;;;;5076160;28;20495;-75
2022/10/26 12:04:44;;;;;;;0.60;0.60;;;22.40;65.50;;;;;;5076676;28;20820;-74
2022/10/26 12:07:21;;;;;;;0.80;0.70;;;22.30;66.10;;;;;;5076687;28;20453;-74
2022/10/26 12:09:47;;;;;;;0.80;0.80;;;22.30;66.70;;;;;;5076473;28;20433;-74
2022/10/26 12:12:21;;;;;;;0.77;0.70;;;22.30;66.80;;;;;;5076105;28;20465;-74
2022/10/26 12:14:56;;;;;;;0.70;0.60;;;22.20;67.00;;;;;;5076376;28;20795;-74
2022/10/26 12:17:28;;;;;;;0.70;0.60;;;22.20;67.10;;;;;;5076774;28;20433;-74
2022/10/26 12:20:04;;;;;;;0.80;0.80;;;22.00;67.90;;;;;;5076901;28;20463;-74
2022/10/26 12:22:34;;;;;;;0.70;0.60;;;22.10;68.20;;;;;;5076465;28;20481;-74
2022/10/26 12:25:18;;;;;;;1.03;0.93;;;22.20;67.70;;;;;;5075967;28;20442;-75
2022/10/26 12:27:57;;;;;;;0.80;0.70;;;22.30;66.90;;;;;;5077275;28;20438;-74
2022/10/26 12:30:27;;;;;;;0.70;0.70;;;22.30;67.40;;;;;;5077757;28;20433;-75
2022/10/26 12:32:55;;;;;;;0.70;0.70;;;21.90;67.90;;;;;;5076625;28;20442;-74
2022/10/26 12:35:36;;;;;;;0.60;0.60;;;21.90;69.50;;;;;;5076403;28;20449;-75
2022/10/26 12:38:49;;;;;;;0.70;0.60;;;21.90;68.20;;;;;;5076454;28;20434;-74
2022/10/26 12:41:23;;;;;;;0.70;0.70;;;21.80;68.70;;;;;;5076058;28;20540;-75
2022/10/26 12:43:54;;;;;;;0.70;0.70;;;21.90;68.30;;;;;;5076533;28;20555;-75
2022/10/26 12:46:44;;;;;;;0.77;0.77;;;22.00;68.10;;;;;;5076508;28;20438;-75
2022/10/26 12:49:59;;;;;;;0.90;0.70;;;22.20;67.90;;;;;;5077239;28;20525;-75
2022/10/26 12:52:41;;;;;;;0.63;0.63;;;22.40;66.50;;;;;;5076277;28;21010;-75
2022/10/26 12:55:41;;;;;;;0.70;0.70;;;22.70;66.40;;;;;;5076272;28;20438;-74
2022/10/26 12:58:31;;;;;;;0.67;0.60;;;22.70;65.40;;;;;;5076373;28;20425;-74
2022/10/26 13:01:26;;;;;;;0.73;0.73;;;22.80;65.40;;;;;;5076039;28;20535;-74
2022/10/26 13:04:05;;;;;;;0.80;0.70;;;23.40;64.60;;;;;;5075787;28;20465;-75
2022/10/26 13:06:45;;;;;;;0.80;0.70;;;23.90;63.00;;;;;;5076392;28;20438;-75
2022/10/26 13:09:17;;;;;;;0.70;0.70;;;24.10;62.90;;;;;;5076236;28;20438;-74
2022/10/26 13:11:47;;;;;;;0.60;0.60;;;24.10;61.90;;;;;;5076633;28;20469;-74
2022/10/26 13:14:22;;;;;;;0.60;0.60;;;25.50;60.60;;;;;;5076168;28;20438;-74
2022/10/26 13:16:49;;;;;;;0.80;0.80;;;27.40;56.20;;;;;;5075560;28;20462;-74
2022/10/26 13:19:27;;;;;;;0.70;0.70;;;29.70;53.20;;;;;;5075160;28;20820;-75
2022/10/26 13:21:57;;;;;;;0.63;0.63;;;31.60;47.80;;;;;;5075670;28;20473;-75
2022/10/26 13:24:27;;;;;;;0.60;0.60;;;33.50;44.60;;;;;;5074765;28;20429;-75
2022/10/26 13:27:24;;;;;;;0.70;0.70;;;34.90;41.50;;;;;;5075003;28;20452;-75
2022/10/26 13:30:18;;;;;;;0.73;0.73;;;36.60;40.60;;;;;;5074976;28;20437;-74
2022/10/26 13:32:51;;;;;;;0.70;0.60;;;37.90;38.60;;;;;;5077470;28;20476;-75
2022/10/26 13:35:20;;;;;;;0.60;0.60;;;38.90;36.90;;;;;;5076478;28;20429;-75
2022/10/26 13:37:49;;;;;;;0.70;0.70;;;39.90;36.00;;;;;;5075406;28;20449;-75
2022/10/26 13:40:18;;;;;;;0.70;0.70;;;40.10;34.80;;;;;;5075355;28;20449;-76
2022/10/26 13:42:47;;;;;;;0.70;0.60;;;39.90;35.50;;;;;;5075334;28;20499;-75
2022/10/26 13:45:18;;;;;;;0.70;0.67;;;39.80;35.30;;;;;;5075674;28;20445;-74
2022/10/26 13:47:52;;;;;;;0.70;0.70;;;38.70;35.80;;;;;;5074691;28;20429;-75
2022/10/26 13:50:22;;;;;;;0.77;0.77;;;38.20;36.70;;;;;;5078833;28;20438;-76
2022/10/26 13:52:51;;;;;;;0.70;0.70;;;38.30;37.10;;;;;;5077367;28;20937;-75
2022/10/26 13:55:22;;;;;;;1.03;0.70;;;39.10;35.80;;;;;;5074339;28;20471;-75
2022/10/26 13:58:03;;;;;;;0.60;0.60;;;39.60;36.20;;;;;;5074324;28;20479;-74
2022/10/26 14:00:30;;;;;;;1.13;0.60;;;40.00;34.00;;;;;;5074253;28;20433;-75
2022/10/26 14:02:58;;;;;;;0.90;0.80;;;40.50;33.40;;;;;;5073753;28;20855;-75
2022/10/26 14:05:25;;;;;;;0.70;0.70;;;41.00;33.20;;;;;;5074396;28;20444;-75
2022/10/26 14:07:54;;;;;;;0.70;0.70;;;41.30;32.60;;;;;;5074140;28;20445;-74
2022/10/26 14:10:27;;;;;;;0.60;0.60;;;41.50;32.30;;;;;;5079815;28;20446;-76
2022/10/26 14:12:54;;;;;;;0.70;0.70;;;41.90;32.40;;;;;;5074440;28;20426;-75
2022/10/26 14:15:25;;;;;;;0.97;0.70;;;42.10;31.90;;;;;;5074086;28;20453;-75
2022/10/26 14:17:53;;;;;;;0.67;0.60;;;41.40;32.40;;;;;;5074010;28;20429;-75
2022/10/26 14:20:24;;;;;;;0.80;0.70;;;40.30;33.10;;;;;;5074018;28;20916;-75
2022/10/26 14:22:51;;;;;;;0.70;0.60;;;39.10;34.20;;;;;;5073897;28;20487;-74
2022/10/26 14:25:20;;;;;;;0.60;0.60;;;37.10;36.20;;;;;;5074029;28;20446;-75
2022/10/26 14:27:46;;;;;;;0.90;0.70;;;34.50;39.00;;;;;;5073764;28;20452;-75
2022/10/26 14:30:25;;;;;;;0.70;0.70;;;32.60;42.20;;;;;;5075686;28;20450;-74
2022/10/26 14:32:52;;;;;;;1.37;0.70;;;31.10;44.30;;;;;;5075469;28;20448;-74
2022/10/26 14:35:23;;;;;;;0.70;0.70;;;29.90;46.20;;;;;;5075052;28;20499;-74
2022/10/26 14:37:53;;;;;;;1.43;0.80;;;29.00;48.20;;;;;;5074703;28;20434;-73
2022/10/26 14:40:23;;;;;;;0.90;0.80;;;28.50;49.50;;;;;;5074859;28;20909;-75
2022/10/26 14:42:54;;;;;;;0.97;0.67;;;28.40;50.60;;;;;;5074688;28;20520;-74
2022/10/26 14:45:24;;;;;;;0.70;0.60;;;28.50;50.50;;;;;;5073651;28;20441;-74
2022/10/26 14:47:51;;;;;;;0.90;0.73;;;28.30;50.50;;;;;;5073673;28;20532;-74
2022/10/26 14:50:20;;;;;;;0.77;0.70;;;28.00;51.30;;;;;;5074362;28;20929;-75
2022/10/26 14:52:53;;;;;;;0.60;0.60;;;27.80;51.70;;;;;;5074377;28;20473;-74
2022/10/26 14:55:20;;;;;;;1.20;1.10;;;27.20;52.20;;;;;;5075475;28;20430;-74
2022/10/26 14:57:49;;;;;;;0.90;0.80;;;26.60;54.00;;;;;;5074491;28;20450;-75
2022/10/26 15:00:19;;;;;;;0.80;0.73;;;26.30;54.90;;;;;;5074564;28;20828;-74
2022/10/26 15:02:47;;;;;;;0.80;0.80;;;25.80;55.30;;;;;;5073640;28;20550;-74
2022/10/26 15:05:20;;;;;;;1.10;0.70;;;25.30;57.00;;;;;;5074330;28;20449;-74
2022/10/26 15:07:47;;;;;;;1.30;0.80;;;25.00;57.80;;;;;;5073588;28;20446;-75
2022/10/26 15:10:47;;;;;;;1.00;0.80;;;24.60;57.90;;;;;;5073354;28;20461;-75
2022/10/26 15:13:23;;;;;;;0.90;0.90;;;24.30;59.10;;;;;;5073788;28;20529;-74
2022/10/26 15:15:51;;;;;;;0.90;0.90;;;24.10;59.60;;;;;;5081901;28;20438;-74
2022/10/26 15:18:22;;;;;;;0.80;0.60;;;23.90;60.20;;;;;;5080232;28;20441;-74
2022/10/26 15:20:50;;;;;;;0.80;0.80;;;23.70;60.90;;;;;;5080012;28;20472;-74
2022/10/26 15:23:18;;;;;;;0.70;0.70;;;23.60;61.00;;;;;;5080273;28;20484;-75
2022/10/26 15:25:53;;;;;;;0.70;0.70;;;23.60;61.80;;;;;;5080253;28;20452;-74
2022/10/26 15:28:29;;;;;;;1.10;0.80;;;23.50;61.00;;;;;;5080832;28;20425;-75
2022/10/26 15:31:01;;;;;;;0.70;0.60;;;23.40;62.30;;;;;;5080730;28;20515;-75
2022/10/26 15:33:28;;;;;;;0.70;0.70;;;23.30;62.20;;;;;;5080176;28;20809;-75
2022/10/26 15:36:12;;;;;;;0.67;0.67;;;23.10;63.00;;;;;;5080263;28;20457;-75
2022/10/26 15:38:38;;;;;;;0.80;0.70;;;22.90;63.00;;;;;;5080913;28;20480;-75
2022/10/26 15:41:14;;;;;;;0.80;0.80;;;22.90;63.50;;;;;;5079799;28;20477;-75
2022/10/26 15:43:41;;;;;;;0.80;0.70;;;22.80;64.60;;;;;;5079938;28;20475;-75
2022/10/26 15:46:08;;;;;;;0.70;0.67;;;22.70;64.40;;;;;;5079603;28;20820;-74
2022/10/26 15:48:34;;;;;;;0.73;0.70;;;22.60;65.00;;;;;;5080051;28;20823;-74
2022/10/26 15:51:01;;;;;;;0.90;0.90;;;22.50;66.10;;;;;;5080924;28;20522;-75
2022/10/26 15:53:29;;;;;;;0.60;0.60;;;22.40;66.80;;;;;;5082638;28;20446;-74
2022/10/26 15:55:57;;;;;;;0.63;0.63;;;22.30;67.10;;;;;;5082458;28;20455;-74
2022/10/26 15:58:26;;;;;;;0.77;0.77;;;22.20;67.70;;;;;;5082213;28;20446;-75
2022/10/26 16:00:52;;;;;;;0.80;0.70;;;22.10;68.20;;;;;;5080674;28;20465;-74
2022/10/26 16:03:22;;;;;;;0.60;0.60;;;21.90;68.80;;;;;;5080239;28;20472;-75
2022/10/26 16:05:53;;;;;;;0.70;0.70;;;21.80;69.10;;;;;;5081108;28;20818;-75
2022/10/26 16:08:20;;;;;;;0.73;0.70;;;21.70;69.50;;;;;;5079951;28;20487;-73